Sites, California
Current Conditions -  °F | °C
As of 1:56 PM on Monday 22 Dec 2014 (Local Time) from KUKI Reporting Station
Overcast Overcast  
Wind Chill: 66°   Ceiling: 3200
Heat Index: 66°   Visibility: 10mi
Dew Point: 53°   Wind: 5mph
Humidity: 63%   Direction: 280°W
Pressure: 30.23"   Gusts: NA
Location:  39.3318°N, 122.533°W
Report Text: KUKI 222156Z AUTO 28004KT 10SM OVC032 19/12 A3023 RMK AO2 SLP232 T01890117
Loading
Personal Weather Stations






























Interactive Weather Map New forecast layout! Learn more

10-Day Weather Forecast

Advertisements
Track Severe Weather on mobile